createdAt,value
2018-08-18T00:00:40.637Z,68.87
2018-08-18T00:17:28.602Z,69.88
2018-08-18T00:25:49.625Z,69.32
2018-08-18T00:34:10.685Z,71.12
2018-08-18T00:42:32.780Z,70.34
2018-08-18T00:50:57.656Z,68.97
2018-08-18T00:59:18.706Z,68.97
2018-08-18T01:32:59.122Z,70.95
2018-08-18T01:41:20.472Z,70.04
2018-08-18T01:49:43.529Z,70.00
2018-08-18T01:58:04.963Z,69.29
2018-08-18T02:06:26.273Z,70.06
2018-08-18T02:40:07.821Z,70.95
2018-08-18T02:48:28.804Z,72.95
2018-08-18T02:56:49.837Z,72.42
2018-08-18T03:05:11.200Z,71.83
2018-08-18T03:13:32.280Z,71.24
2018-08-18T03:30:20.588Z,72.24
2018-08-18T04:04:01.123Z,72.28
2018-08-18T04:12:26.038Z,72.04
2018-08-18T04:54:32.910Z,72.52
2018-08-18T05:02:53.953Z,72.30
2018-08-18T05:19:45.647Z,72.37
2018-08-18T05:28:07.052Z,73.25
2018-08-18T05:43:42.018Z,72.75
2018-08-18T06:00:30.171Z,72.81
2018-08-18T06:17:17.967Z,71.39
2018-08-18T06:25:39.096Z,70.81
2018-08-18T06:34:00.387Z,70.60
2018-08-18T06:42:21.444Z,68.78
2018-08-18T06:50:42.467Z,66.08
2018-08-18T07:15:12.175Z,62.83
2018-08-18T07:23:33.220Z,60.46
2018-08-18T07:57:06.255Z,55.61
2018-08-18T08:05:27.309Z,54.34
2018-08-18T08:13:48.395Z,52.70
2018-08-18T08:22:09.473Z,51.66
2018-08-18T08:30:30.517Z,49.16
2018-08-18T08:38:51.577Z,49.91
2018-08-18T08:47:12.679Z,45.43
2018-08-18T08:55:33.696Z,45.54
2018-08-18T09:08:03.496Z,42.97
2018-08-18T09:16:24.514Z,42.48
2018-08-18T09:24:45.614Z,42.62
2018-08-18T09:33:06.658Z,42.08
2018-08-18T09:41:27.683Z,43.46
2018-08-18T09:49:48.989Z,41.51
2018-08-18T09:58:10.002Z,41.04
2018-08-18T10:06:31.094Z,40.49
2018-08-18T10:14:52.471Z,40.00
2018-08-18T10:23:13.510Z,39.52
2018-08-18T10:31:34.531Z,40.08
2018-08-18T10:39:55.639Z,39.28
2018-08-18T10:48:16.651Z,38.46
2018-08-18T10:56:37.703Z,39.05
2018-08-18T11:04:58.712Z,37.97
2018-08-18T11:13:20.454Z,37.51
2018-08-18T11:21:41.580Z,38.19
2018-08-18T11:30:02.731Z,38.57
2018-08-18T11:38:23.774Z,36.25
2018-08-18T11:46:44.814Z,36.81
2018-08-18T11:55:05.834Z,35.07
2018-08-18T12:03:26.902Z,33.37
2018-08-18T12:11:47.946Z,32.29
2018-08-18T12:20:08.971Z,29.65
2018-08-18T12:28:30.007Z,27.53
2018-08-18T12:36:51.402Z,22.85
2018-08-18T12:45:12.430Z,22.03
2018-08-18T12:53:33.459Z,20.24
2018-08-18T13:01:54.517Z,18.16
2018-08-18T13:10:15.803Z,17.10
2018-08-18T13:18:36.872Z,17.71
2018-08-18T13:26:58.213Z,17.96
2018-08-18T13:35:19.244Z,16.70
2018-08-18T13:43:40.266Z,15.33
2018-08-18T13:53:22.130Z,15.75
2018-08-18T14:01:43.149Z,15.75
2018-08-18T14:10:04.310Z,14.59
2018-08-18T14:18:26.358Z,12.84
2018-08-18T14:26:47.489Z,12.39
2018-08-18T14:35:08.489Z,12.58
2018-08-18T14:43:29.529Z,12.69
2018-08-18T14:51:50.662Z,12.54
2018-08-18T15:00:11.692Z,12.27
2018-08-18T15:08:32.688Z,11.41
2018-08-18T15:16:54.803Z,11.72
2018-08-18T15:25:15.851Z,12.44
2018-08-18T15:33:36.871Z,13.18
2018-08-18T15:41:57.896Z,14.29
2018-08-18T15:50:18.998Z,15.36
2018-08-18T15:58:40.046Z,15.64
2018-08-18T16:07:01.098Z,16.86
2018-08-18T16:19:43.662Z,17.47
2018-08-18T16:28:04.768Z,19.19
2018-08-18T16:36:25.793Z,22.45
2018-08-18T16:44:46.816Z,23.98
2018-08-18T16:53:07.862Z,25.32
2018-08-18T17:01:28.989Z,25.88
2018-08-18T17:09:50.297Z,26.32
2018-08-18T17:18:11.316Z,26.80
2018-08-18T17:26:32.411Z,27.65
2018-08-18T17:41:06.202Z,30.85
2018-08-18T17:49:27.294Z,32.51
2018-08-18T17:57:48.368Z,33.44
2018-08-18T18:06:09.454Z,36.82
2018-08-18T18:14:30.501Z,38.06
2018-08-18T18:22:51.522Z,39.65
2018-08-18T18:31:12.548Z,40.61
2018-08-18T18:39:33.625Z,41.74
2018-08-18T18:47:54.659Z,44.99
2018-08-18T18:56:15.657Z,45.95
2018-08-18T19:04:36.734Z,47.53
2018-08-18T19:12:58.173Z,46.85
2018-08-18T19:21:19.246Z,48.81
2018-08-18T19:29:40.641Z,49.23
2018-08-18T19:38:01.659Z,50.25
2018-08-18T19:46:22.808Z,50.22
2018-08-18T19:58:25.175Z,50.82
2018-08-18T20:09:46.003Z,51.85
2018-08-18T20:18:07.011Z,52.20
2018-08-18T20:26:28.012Z,52.83
2018-08-18T20:34:49.113Z,54.02
2018-08-18T20:43:10.136Z,54.74
2018-08-18T20:51:31.182Z,54.17
2018-08-18T20:59:52.229Z,55.67
2018-08-18T21:08:13.247Z,57.13
2018-08-18T21:16:34.275Z,56.87
2018-08-18T21:24:55.290Z,57.52
2018-08-18T21:33:16.311Z,57.47
2018-08-18T21:41:37.357Z,57.08
2018-08-18T21:49:58.400Z,57.65
2018-08-18T21:58:19.484Z,57.85
2018-08-18T22:12:23.247Z,59.37
2018-08-18T22:20:44.391Z,59.04
2018-08-18T22:29:05.434Z,60.37
2018-08-18T22:37:26.436Z,60.14
2018-08-18T22:45:47.474Z,60.81
2018-08-18T22:54:08.542Z,60.96
2018-08-18T23:02:29.615Z,61.70
2018-08-18T23:10:50.938Z,61.78
2018-08-18T23:19:12.011Z,61.65
2018-08-18T23:27:33.158Z,63.59
2018-08-18T23:35:54.174Z,63.96
2018-08-18T23:44:15.242Z,63.69
2018-08-18T23:52:36.371Z,63.38
